Time;durP1;ratioP1;P1;durP2;ratioP2;P2;SDS_P1;SDS_P2;PMS_P1;PMS_P2;Temp;Humidity;BMP_temperature;BMP_pressure;BME280_temperature;BME280_humidity;BME280_pressure;Samples;Min_cycle;Max_cycle;Signal;HPM_P1;HPM_P2
2021/07/05 00:00:53;;;;;;;;;2.33;2.33;;;;;21.91;51.96;100478.53;5073907;28;47193;-53
2021/07/05 00:03:19;;;;;;;;;2.67;2.00;;;;;21.91;51.98;100474.97;5054840;28;45791;-50
2021/07/05 00:05:44;;;;;;;;;3.00;3.00;;;;;21.89;51.62;100463.44;5065298;28;45488;-54
2021/07/05 00:08:10;;;;;;;;;2.00;2.00;;;;;21.87;51.57;100460.84;5061463;28;45445;-53
2021/07/05 00:10:36;;;;;;;;;2.00;2.00;;;;;21.87;51.66;100466.25;5061366;28;48040;-52
2021/07/05 00:13:03;;;;;;;;;2.00;2.00;;;;;21.86;52.26;100461.81;5064211;28;45346;-49
2021/07/05 00:15:31;;;;;;;;;3.00;2.33;;;;;21.86;52.18;100456.41;5069973;28;45401;-53
2021/07/05 00:18:00;;;;;;;;;3.33;3.33;;;;;21.87;52.07;100441.94;5064159;28;45565;-51
2021/07/05 00:20:27;;;;;;;;;3.00;3.00;;;;;21.87;52.16;100439.22;5073600;27;47374;-51
2021/07/05 00:22:53;;;;;;;;;3.00;2.00;;;;;21.88;52.21;100440.94;5066937;27;45451;-52
2021/07/05 00:25:19;;;;;;;;;4.00;2.00;;;;;21.88;52.29;100445.50;5067736;28;45499;-51
2021/07/05 00:27:45;;;;;;;;;3.33;2.67;;;;;21.88;52.51;100465.28;5059584;28;45980;-50
2021/07/05 00:30:14;;;;;;;;;0.00;0.00;;;;;21.88;51.69;100467.97;5070102;28;45504;-51
2021/07/05 00:32:40;;;;;;;;;1.00;1.00;;;;;21.85;51.80;100456.50;5046908;28;45931;-53
2021/07/05 00:35:05;;;;;;;;;3.00;3.00;;;;;21.83;51.62;100459.31;5070142;28;46685;-53
2021/07/05 00:37:31;;;;;;;;;4.00;2.67;;;;;21.84;52.16;100468.28;5054618;28;45637;-54
2021/07/05 00:39:56;;;;;;;;;1.33;1.33;;;;;21.81;51.74;100471.22;5053158;28;47331;-53
2021/07/05 00:42:22;;;;;;;;;2.00;2.00;;;;;21.77;52.00;100459.78;5059029;28;45435;-51
2021/07/05 00:44:48;;;;;;;;;2.00;2.00;;;;;21.79;51.69;100465.06;5059825;28;45773;-52
2021/07/05 00:47:13;;;;;;;;;3.00;3.00;;;;;21.76;52.12;100458.06;5068739;27;45911;-52
2021/07/05 00:49:39;;;;;;;;;2.67;2.67;;;;;21.76;51.97;100454.50;5052375;28;46955;-52
2021/07/05 00:52:05;;;;;;;;;2.67;2.00;;;;;21.72;51.92;100454.72;5052492;28;45447;-52
2021/07/05 00:54:31;;;;;;;;;3.67;3.33;;;;;21.72;52.52;100448.41;5063637;28;45349;-53
2021/07/05 00:56:57;;;;;;;;;2.33;2.33;;;;;21.72;52.30;100461.94;5073353;27;45487;-53
2021/07/05 00:59:24;;;;;;;;;2.67;2.33;;;;;21.70;52.03;100464.75;5061782;28;47153;-53
2021/07/05 01:01:49;;;;;;;;;3.00;1.00;;;;;21.69;52.27;100465.72;5065665;28;45610;-54
2021/07/05 01:04:15;;;;;;;;;2.00;2.00;;;;;21.68;52.17;100452.31;5069308;27;45819;-52
2021/07/05 01:06:40;;;;;;;;;2.67;2.33;;;;;21.65;52.05;100429.13;5066671;27;45681;-52
2021/07/05 01:09:06;;;;;;;;;2.00;2.00;;;;;21.62;51.51;100425.78;5067930;27;48286;-53
2021/07/05 01:11:32;;;;;;;;;2.00;2.00;;;;;21.62;52.01;100428.47;5057627;28;45507;-53
2021/07/05 01:13:57;;;;;;;;;2.00;2.00;;;;;21.63;51.66;100419.41;5073143;27;45810;-53
2021/07/05 01:16:23;;;;;;;;;2.00;1.33;;;;;21.61;51.51;100430.31;5066547;27;45656;-52
2021/07/05 01:18:48;;;;;;;;;2.00;2.00;;;;;21.57;51.71;100426.09;5076609;27;48348;-51
2021/07/05 01:21:14;;;;;;;;;2.33;2.33;;;;;21.55;51.73;100417.25;5057927;28;45365;-50
2021/07/05 01:23:39;;;;;;;;;1.33;1.33;;;;;21.54;52.00;100395.75;5070739;27;45413;-52
2021/07/05 01:26:05;;;;;;;;;2.00;2.00;;;;;21.53;51.99;100385.94;5066323;27;45522;-54
2021/07/05 01:28:31;;;;;;;;;1.33;1.33;;;;;21.51;51.96;100386.03;5069153;27;48094;-53
2021/07/05 01:30:56;;;;;;;;;1.00;1.00;;;;;21.50;52.26;100403.22;5073535;27;45488;-54
2021/07/05 01:33:22;;;;;;;;;1.00;1.00;;;;;21.49;52.10;100411.44;5069235;27;46029;-55
2021/07/05 01:35:48;;;;;;;;;2.67;2.67;;;;;21.48;51.97;100407.88;5073601;27;45388;-52
2021/07/05 01:38:19;;;;;;;;;2.00;2.00;;;;;21.48;52.44;100404.31;5067316;27;47279;-51
2021/07/05 01:41:01;;;;;;;;;2.00;2.00;;;;;21.47;52.51;100403.44;5067348;27;45290;-54
2021/07/05 01:43:28;;;;;;;;;1.00;1.00;;;;;21.44;52.43;100401.81;5050384;27;45397;-53
2021/07/05 01:45:53;;;;;;;;;1.33;1.33;;;;;21.45;52.58;100408.94;5051650;27;45843;-50
2021/07/05 01:48:19;;;;;;;;;3.00;2.00;;;;;21.47;52.33;100418.75;5064687;27;48236;-53
2021/07/05 01:50:45;;;;;;;;;2.00;2.00;;;;;21.44;52.29;100425.25;5047957;28;46121;-52
2021/07/05 01:53:12;;;;;;;;;1.00;1.00;;;;;21.44;52.97;100422.53;5065861;27;45420;-53
2021/07/05 01:55:38;;;;;;;;;2.67;2.67;;;;;21.44;52.43;100417.16;5062116;27;46067;-53
2021/07/05 01:58:06;;;;;;;;;2.00;2.00;;;;;21.44;52.91;100427.94;5059552;28;47524;-53
2021/07/05 02:00:33;;;;;;;;;3.00;3.00;;;;;21.41;53.08;100420.94;5074461;27;45589;-52
2021/07/05 02:02:59;;;;;;;;;2.33;2.00;;;;;21.40;52.92;100403.00;5070928;27;45421;-53
2021/07/05 02:05:25;;;;;;;;;2.00;2.00;;;;;21.40;53.02;100405.72;5048509;27;45425;-50
2021/07/05 02:07:51;;;;;;;;;1.00;1.00;;;;;21.41;53.32;100420.06;5048562;28;47062;-50
2021/07/05 02:10:24;;;;;;;;;1.00;1.00;;;;;21.38;53.09;100434.66;5049658;28;45548;-51
2021/07/05 02:12:51;;;;;;;;;3.00;3.00;;;;;21.37;53.51;100422.13;5049320;28;45389;-51
2021/07/05 02:15:17;;;;;;;;;2.00;2.00;;;;;21.38;53.52;100428.41;5065572;27;45612;-50
2021/07/05 02:17:43;;;;;;;;;1.00;1.00;;;;;21.37;52.89;100432.06;5058997;28;46326;-53
2021/07/05 02:20:12;;;;;;;;;2.00;2.00;;;;;21.37;53.31;100418.56;5066131;28;46006;-53
2021/07/05 02:22:38;;;;;;;;;3.33;2.00;;;;;21.37;53.63;100423.97;5045277;28;45840;-53
2021/07/05 02:25:08;;;;;;;;;1.33;1.33;;;;;21.36;53.42;100420.41;5058466;28;45504;-52
2021/07/05 02:27:33;;;;;;;;;3.00;2.33;;;;;21.36;53.43;100406.91;5035797;28;48285;-52
2021/07/05 02:29:59;;;;;;;;;1.67;1.67;;;;;21.38;53.67;100409.50;5060092;28;45468;-52
2021/07/05 02:32:25;;;;;;;;;1.00;1.00;;;;;21.37;53.80;100407.78;5048007;28;45848;-54
2021/07/05 02:34:50;;;;;;;;;1.00;1.00;;;;;21.35;53.59;100405.19;5065284;28;45366;-51
2021/07/05 02:37:16;;;;;;;;;1.00;1.00;;;;;21.33;53.14;100401.72;5062828;27;48434;-50
2021/07/05 02:39:41;;;;;;;;;2.00;2.00;;;;;21.32;53.81;100396.44;5048632;27;45862;-53
2021/07/05 02:42:07;;;;;;;;;3.00;3.00;;;;;21.32;53.70;100389.19;5046469;28;45540;-54
2021/07/05 02:44:33;;;;;;;;;1.00;1.00;;;;;21.31;54.04;100387.47;5044068;27;45631;-53
2021/07/05 02:46:58;;;;;;;;;1.33;1.33;;;;;21.29;54.26;100377.75;5051274;28;48576;-53
2021/07/05 02:49:24;;;;;;;;;1.67;1.67;;;;;21.28;54.54;100376.03;5071505;27;45684;-50
2021/07/05 02:51:49;;;;;;;;;1.33;1.33;;;;;21.27;53.85;100377.00;5067055;27;45732;-51
2021/07/05 02:54:15;;;;;;;;;2.67;2.67;;;;;21.27;54.08;100366.22;5048147;27;46886;-53
2021/07/05 02:56:40;;;;;;;;;2.00;2.00;;;;;21.28;54.71;100373.34;5066216;27;46133;-50
2021/07/05 02:59:06;;;;;;;;;2.33;2.33;;;;;21.26;54.79;100357.25;5067425;27;45329;-48
2021/07/05 03:01:31;;;;;;;;;4.00;2.67;;;;;21.25;54.33;100366.31;5073289;28;45403;-52
2021/07/05 03:03:57;;;;;;;;;3.00;3.00;;;;;21.25;54.92;100355.53;5070231;27;45275;-51
2021/07/05 03:06:23;;;;;;;;;1.33;1.33;;;;;21.26;54.16;100353.69;5032099;28;47981;-52
2021/07/05 03:08:48;;;;;;;;;3.00;3.00;;;;;21.27;55.16;100350.03;5075549;27;45532;-49
2021/07/05 03:11:14;;;;;;;;;2.00;2.00;;;;;21.26;54.46;100341.06;5066895;27;45789;-52
2021/07/05 03:13:40;;;;;;;;;4.33;2.00;;;;;21.24;54.74;100345.69;5074698;27;45404;-53
2021/07/05 03:16:05;;;;;;;;;4.00;2.00;;;;;21.24;54.49;100352.91;5068678;27;47506;-52
2021/07/05 03:18:31;;;;;;;;;1.00;1.00;;;;;21.22;55.20;100346.78;5059801;28;45445;-52
2021/07/05 03:20:57;;;;;;;;;4.00;3.00;;;;;21.21;55.28;100343.19;5053495;28;45666;-53
2021/07/05 03:23:24;;;;;;;;;1.00;1.00;;;;;21.20;55.03;100346.00;5070304;27;45419;-52
2021/07/05 03:25:50;;;;;;;;;3.00;3.00;;;;;21.18;55.43;100348.81;5061345;28;47220;-51
2021/07/05 03:28:17;;;;;;;;;1.33;1.33;;;;;21.15;55.35;100354.44;5050035;28;45364;-53
2021/07/05 03:30:44;;;;;;;;;3.00;3.00;;;;;21.15;55.97;100349.03;5062292;28;45383;-53
2021/07/05 03:33:10;;;;;;;;;3.00;2.00;;;;;21.15;55.58;100344.50;5050233;28;45471;-52
2021/07/05 03:35:37;;;;;;;;;3.00;3.00;;;;;21.15;56.42;100347.19;5070123;28;46709;-50
2021/07/05 03:38:04;;;;;;;;;4.00;3.00;;;;;21.13;56.13;100345.56;5057749;28;45868;-53
2021/07/05 03:40:32;;;;;;;;;2.33;2.33;;;;;21.12;56.72;100346.56;5062593;28;45476;-50
2021/07/05 03:42:59;;;;;;;;;2.00;2.00;;;;;21.12;56.59;100335.75;5073958;28;45439;-52
2021/07/05 03:45:28;;;;;;;;;2.67;2.67;;;;;21.09;56.32;100331.47;5071146;27;47389;-54
2021/07/05 03:47:55;;;;;;;;;2.67;2.67;;;;;21.06;56.59;100325.38;5065518;27;45457;-52
2021/07/05 03:50:21;;;;;;;;;2.00;2.00;;;;;21.04;57.38;100320.09;5058175;28;45496;-51
2021/07/05 03:52:48;;;;;;;;;3.33;3.00;;;;;21.03;57.46;100323.78;5060536;28;45279;-53
2021/07/05 03:55:17;;;;;;;;;5.00;2.67;;;;;21.00;57.60;100317.75;5063787;28;48216;-51
2021/07/05 03:57:43;;;;;;;;;2.00;2.00;;;;;20.99;57.25;100314.19;5062211;28;45677;-52
2021/07/05 04:00:15;;;;;;;;;4.00;3.00;;;;;20.99;57.36;100324.13;5071424;28;45427;-53
2021/07/05 04:02:41;;;;;;;;;3.33;3.33;;;;;20.96;57.52;100316.22;5062230;28;45481;-51
2021/07/05 04:05:07;;;;;;;;;2.00;2.00;;;;;20.96;57.48;100306.31;5039225;28;48340;-52
2021/07/05 04:07:33;;;;;;;;;2.67;2.67;;;;;20.95;58.19;100299.16;5062840;28;45768;-53
2021/07/05 04:10:00;;;;;;;;;3.00;3.00;;;;;20.96;58.21;100295.53;5068778;28;45437;-51
2021/07/05 04:12:25;;;;;;;;;3.00;3.00;;;;;20.95;58.15;100285.69;5070160;27;45706;-52
2021/07/05 04:14:51;;;;;;;;;2.00;2.00;;;;;20.95;58.21;100272.19;5060490;28;47100;-53
2021/07/05 04:17:17;;;;;;;;;3.67;3.67;;;;;20.95;57.96;100276.72;5055581;28;45620;-54
2021/07/05 04:19:45;;;;;;;;;2.00;2.00;;;;;20.93;57.96;100262.50;5058345;28;45512;-50
2021/07/05 04:22:18;;;;;;;;;2.00;2.00;;;;;20.89;57.76;100267.25;5064945;28;45736;-52
2021/07/05 04:24:45;;;;;;;;;2.00;2.00;;;;;20.90;58.22;100273.50;5061703;28;46703;-51
2021/07/05 04:27:11;;;;;;;;;3.00;3.00;;;;;20.86;57.94;100276.44;5050837;28;45613;-50
2021/07/05 04:29:38;;;;;;;;;2.00;2.00;;;;;20.84;58.61;100275.69;5060890;28;45576;-54
2021/07/05 04:32:05;;;;;;;;;1.33;1.33;;;;;20.84;58.41;100280.22;5060744;28;45579;-50
2021/07/05 04:34:30;;;;;;;;;3.00;3.00;;;;;20.84;58.41;100266.75;5061495;28;48297;-53
2021/07/05 04:36:56;;;;;;;;;3.67;2.67;;;;;20.84;58.35;100264.03;5054035;28;45339;-53
2021/07/05 04:39:22;;;;;;;;;1.67;1.67;;;;;20.84;58.80;100278.38;5054512;28;45865;-52
2021/07/05 04:41:47;;;;;;;;;2.00;2.00;;;;;20.82;58.73;100272.22;5059596;27;46253;-50
2021/07/05 04:44:13;;;;;;;;;1.00;1.00;;;;;20.81;58.13;100269.63;5064028;28;47120;-50
2021/07/05 04:46:46;;;;;;;;;1.33;1.00;;;;;20.80;58.60;100270.59;5046939;28;45464;-48
2021/07/05 04:49:13;;;;;;;;;1.00;1.00;;;;;20.81;58.42;100277.72;5057362;28;45511;-51
2021/07/05 04:51:38;;;;;;;;;3.00;3.00;;;;;20.79;58.60;100260.78;5058152;28;45627;-51
2021/07/05 04:54:04;;;;;;;;;2.00;2.00;;;;;20.78;58.24;100245.59;5058605;28;47202;-51
2021/07/05 04:56:29;;;;;;;;;2.67;2.67;;;;;20.78;58.85;100241.06;5069394;27;45771;-47
2021/07/05 04:58:55;;;;;;;;;4.00;4.00;;;;;20.76;58.36;100221.44;5039646;28;45747;-52
2021/07/05 05:01:20;;;;;;;;;3.00;3.00;;;;;20.75;59.08;100206.22;5066591;28;45718;-50
2021/07/05 05:03:46;;;;;;;;;3.00;3.00;;;;;20.76;58.39;100204.38;5067860;28;45882;-51
2021/07/05 05:06:11;;;;;;;;;2.00;2.00;;;;;20.74;58.97;100207.19;5061856;28;45743;-48
2021/07/05 05:08:37;;;;;;;;;4.00;4.00;;;;;20.73;58.44;100202.78;5052092;28;46775;-52
2021/07/05 05:11:03;;;;;;;;;2.67;2.00;;;;;20.74;58.64;100198.25;5067155;28;45796;-51
2021/07/05 05:13:29;;;;;;;;;1.00;1.00;;;;;20.74;58.71;100193.72;5078230;28;48007;-51
2021/07/05 05:15:54;;;;;;;;;3.00;3.00;;;;;20.75;59.06;100184.66;5064252;28;47035;-52
2021/07/05 05:18:21;;;;;;;;;2.67;2.67;;;;;20.74;58.32;100173.97;5054880;27;45508;-51
2021/07/05 05:20:47;;;;;;;;;2.00;2.00;;;;;20.73;58.60;100183.91;5078459;27;45512;-51
2021/07/05 05:23:12;;;;;;;;;1.33;1.33;;;;;20.74;59.04;100171.28;5069143;27;49650;-52
2021/07/05 05:25:38;;;;;;;;;2.00;2.00;;;;;20.75;59.14;100170.31;5066420;28;45440;-51
2021/07/05 05:28:04;;;;;;;;;2.00;2.00;;;;;20.75;59.19;100168.47;5072876;28;45669;-53
2021/07/05 05:30:29;;;;;;;;;1.00;1.00;;;;;20.75;59.16;100162.22;5060597;28;45319;-49
2021/07/05 05:32:56;;;;;;;;;1.00;1.00;;;;;20.75;59.06;100171.16;5069319;28;47259;-51
2021/07/05 05:35:23;;;;;;;;;1.67;1.67;;;;;20.73;58.47;100181.22;5063290;28;45317;-49
2021/07/05 05:37:51;;;;;;;;;2.00;2.00;;;;;20.75;58.58;100173.88;5075916;28;45392;-49
2021/07/05 05:40:17;;;;;;;;;3.00;1.33;;;;;20.76;58.75;100178.28;5048385;28;45612;-50
2021/07/05 05:42:43;;;;;;;;;0.33;0.33;;;;;20.79;58.73;100166.41;5060982;28;47411;-49
2021/07/05 05:45:10;;;;;;;;;1.33;1.33;;;;;20.80;58.47;100168.13;5061942;28;45705;-53
2021/07/05 05:47:35;;;;;;;;;1.00;1.00;;;;;20.83;58.59;100175.97;5067250;27;46103;-51
2021/07/05 05:50:01;;;;;;;;;1.00;1.00;;;;;20.83;58.62;100179.56;5075447;28;45581;-52
2021/07/05 05:52:26;;;;;;;;;3.00;2.33;;;;;20.88;59.21;100194.56;5049809;28;47587;-49
2021/07/05 05:54:52;;;;;;;;;1.67;1.67;;;;;20.91;58.29;100200.56;5034571;28;45729;-51
2021/07/05 05:57:27;;;;;;;;;0.00;0.00;;;;;20.93;58.10;100204.00;5069288;28;45490;-53
2021/07/05 05:59:55;;;;;;;;;1.00;1.00;;;;;20.94;58.48;100200.34;5042713;28;45971;-52
2021/07/05 06:02:21;;;;;;;;;0.00;0.00;;;;;20.99;58.33;100210.81;5068356;27;48613;-52
2021/07/05 06:04:46;;;;;;;;;0.67;0.67;;;;;20.98;58.33;100204.56;5065383;27;45536;-53
2021/07/05 06:07:11;;;;;;;;;0.00;0.00;;;;;21.00;58.10;100197.22;5063920;28;45290;-53
2021/07/05 06:09:37;;;;;;;;;1.33;1.33;;;;;21.03;58.78;100185.31;5065758;28;45339;-50
2021/07/05 06:12:03;;;;;;;;;2.33;1.33;;;;;21.06;58.94;100188.66;5065925;28;48506;-53
2021/07/05 06:14:29;;;;;;;;;1.00;1.00;;;;;21.15;58.68;100189.81;5056611;28;45866;-52
2021/07/05 06:16:54;;;;;;;;;1.00;1.00;;;;;21.19;58.03;100196.72;5068554;27;45789;-51
2021/07/05 06:19:19;;;;;;;;;1.67;1.67;;;;;21.23;58.33;100200.94;5049475;28;45826;-52
2021/07/05 06:21:45;;;;;;;;;2.00;2.00;;;;;21.26;57.81;100195.31;5068624;28;47417;-52
2021/07/05 06:24:10;;;;;;;;;2.00;2.00;;;;;21.30;57.69;100193.25;5073477;27;45871;-52
2021/07/05 06:26:36;;;;;;;;;2.00;2.00;;;;;21.32;58.07;100194.00;5057178;28;45388;-51
2021/07/05 06:29:02;;;;;;;;;5.00;5.00;;;;;21.32;57.51;100200.25;5069619;28;45638;-52
2021/07/05 06:31:29;;;;;;;;;6.00;3.00;;;;;21.33;57.71;100195.72;5061154;28;47339;-52
2021/07/05 06:33:54;;;;;;;;;3.00;3.00;;;;;21.33;57.21;100193.88;5070444;27;45716;-52
2021/07/05 06:36:20;;;;;;;;;5.67;5.00;;;;;21.34;57.88;100186.63;5053196;28;45514;-53
2021/07/05 06:38:46;;;;;;;;;2.00;2.00;;;;;21.34;57.59;100192.94;5071196;27;45778;-53
2021/07/05 06:41:11;;;;;;;;;3.00;3.00;;;;;21.35;57.92;100183.84;5069056;27;48148;-53
2021/07/05 06:43:37;;;;;;;;;2.33;2.33;;;;;21.39;57.85;100185.34;5069565;27;45216;-54
2021/07/05 06:46:02;;;;;;;;;2.00;2.00;;;;;21.45;58.09;100189.41;5071172;27;45389;-52
2021/07/05 06:48:28;;;;;;;;;3.00;2.00;;;;;21.49;58.00;100180.13;5058598;28;45322;-54
2021/07/05 06:50:54;;;;;;;;;3.33;3.33;;;;;21.52;58.08;100176.31;5070096;27;47889;-55
2021/07/05 06:53:19;;;;;;;;;2.00;2.00;;;;;21.56;58.08;100183.19;5060420;28;45381;-53
2021/07/05 06:55:45;;;;;;;;;3.00;2.00;;;;;21.62;57.89;100186.31;5069461;27;45712;-53
2021/07/05 06:58:10;;;;;;;;;2.00;2.00;;;;;21.66;57.42;100193.19;5079145;27;45490;-53
2021/07/05 07:00:36;;;;;;;;;2.00;2.00;;;;;21.66;57.18;100185.09;5072610;27;47324;-53
2021/07/05 07:03:04;;;;;;;;;2.00;2.00;;;;;21.67;57.42;100194.03;5060443;28;45659;-53
2021/07/05 07:05:33;;;;;;;;;2.00;1.33;;;;;21.66;57.87;100192.31;5069150;27;45440;-58
2021/07/05 07:07:58;;;;;;;;;3.00;3.00;;;;;21.68;57.73;100193.91;5066587;27;45773;-58
2021/07/05 07:10:25;;;;;;;;;2.00;2.00;;;;;21.71;57.89;100207.19;5071028;27;45402;-59
2021/07/05 07:12:54;;;;;;;;;2.00;2.00;;;;;21.73;57.75;100199.00;5072814;27;45499;-58
2021/07/05 07:15:23;;;;;;;;;2.00;2.00;;;;;21.77;57.50;100194.22;5073474;27;45487;-57
2021/07/05 07:17:57;;;;;;;;;2.33;2.33;;;;;21.79;57.42;100193.09;5057655;28;45883;-58
2021/07/05 07:20:22;;;;;;;;;2.00;2.00;;;;;21.81;57.74;100203.78;5052358;28;47374;-60
2021/07/05 07:22:48;;;;;;;;;2.00;2.00;;;;;21.81;57.21;100191.16;5059784;27;46014;-58
2021/07/05 07:25:15;;;;;;;;;2.33;2.33;;;;;21.81;57.58;100191.16;5072086;27;45475;-58
2021/07/05 07:27:41;;;;;;;;;2.00;2.00;;;;;21.86;57.37;100196.22;5071751;27;45655;-58
2021/07/05 07:30:09;;;;;;;;;2.00;2.00;;;;;21.90;57.49;100205.78;5068755;27;48164;-58
2021/07/05 07:32:35;;;;;;;;;7.00;3.00;;;;;21.94;57.10;100204.56;5065852;27;45310;-57
2021/07/05 07:35:00;;;;;;;;;2.33;2.33;;;;;21.93;57.26;100203.72;5072669;27;45475;-57
2021/07/05 07:37:26;;;;;;;;;3.00;3.00;;;;;21.94;57.10;100199.16;5055848;28;45442;-57
2021/07/05 07:39:59;;;;;;;;;3.00;2.33;;;;;21.94;57.56;100210.84;5053636;27;47652;-59
2021/07/05 07:42:26;;;;;;;;;2.33;2.33;;;;;21.96;57.51;100210.72;5070333;27;45455;-57
2021/07/05 07:44:52;;;;;;;;;3.00;3.00;;;;;21.91;57.56;100216.47;5054490;28;45565;-57
2021/07/05 07:47:17;;;;;;;;;2.00;2.00;;;;;21.91;57.51;100216.47;5050183;27;45799;-58
2021/07/05 07:49:43;;;;;;;;;2.00;2.00;;;;;21.93;57.70;100210.97;5067616;27;47371;-59
2021/07/05 07:52:08;;;;;;;;;4.00;3.00;;;;;21.99;57.34;100215.91;5068275;27;45542;-59
2021/07/05 07:54:34;;;;;;;;;3.00;3.00;;;;;22.04;57.47;100219.97;5068537;27;45382;-60
2021/07/05 07:56:59;;;;;;;;;3.00;3.00;;;;;22.09;57.64;100216.06;5070263;27;45486;-59
2021/07/05 07:59:25;;;;;;;;;2.67;2.67;;;;;22.12;56.86;100200.50;5066707;27;48293;-59
2021/07/05 08:01:50;;;;;;;;;3.00;3.00;;;;;22.14;56.90;100192.25;5062822;27;45639;-59
2021/07/05 08:04:16;;;;;;;;;2.00;2.00;;;;;22.13;57.11;100180.59;5077680;27;45337;-59
2021/07/05 08:06:42;;;;;;;;;2.00;2.00;;;;;22.12;57.47;100181.56;5066763;27;45393;-59
2021/07/05 08:09:08;;;;;;;;;3.67;2.00;;;;;22.15;57.53;100185.88;5077028;27;47673;-59
2021/07/05 08:11:34;;;;;;;;;5.50;5.50;;;;;22.21;57.19;100198.91;5058318;28;45316;-58
2021/07/05 08:14:01;;;;;;;;;11.75;11.50;;;;;22.24;57.56;100193.28;5061689;27;46417;-58
2021/07/05 08:16:28;;;;;;;;;4.00;4.00;;;;;22.29;56.88;100185.66;5063845;27;45693;-58
2021/07/05 08:18:53;;;;;;;;;6.50;6.50;;;;;22.36;57.49;100189.59;5064520;27;48077;-58
2021/07/05 08:21:19;;;;;;;;;3.33;3.33;;;;;22.41;57.07;100187.38;5077030;27;45744;-58
2021/07/05 08:23:45;;;;;;;;;6.50;5.25;;;;;22.45;56.97;100185.28;5051970;28;45377;-58
2021/07/05 08:26:11;;;;;;;;;4.67;4.00;;;;;22.48;57.59;100191.31;5074424;27;45363;-58
2021/07/05 08:28:37;;;;;;;;;3.00;3.00;;;;;22.56;57.02;100198.81;5063968;27;47404;-58
2021/07/05 08:31:04;;;;;;;;;4.00;4.00;;;;;22.61;56.88;100197.50;5066848;27;46066;-58
2021/07/05 08:33:31;;;;;;;;;3.25;3.25;;;;;22.68;57.13;100203.25;5069710;27;45887;-58
2021/07/05 08:35:58;;;;;;;;;3.33;3.00;;;;;22.74;56.73;100207.28;5076804;27;45584;-58
2021/07/05 08:38:25;;;;;;;;;4.67;4.67;;;;;22.81;56.62;100212.09;5077504;27;48210;-59
2021/07/05 08:40:51;;;;;;;;;6.00;6.00;;;;;22.83;56.02;100218.28;5065881;27;45443;-58
2021/07/05 08:43:17;;;;;;;;;5.00;5.00;;;;;22.80;55.89;100201.41;5078097;27;45477;-58
2021/07/05 08:45:45;;;;;;;;;5.33;5.33;;;;;22.78;56.25;100203.38;5072409;27;45298;-58
2021/07/05 08:48:13;;;;;;;;;6.00;6.00;;;;;22.74;56.08;100208.19;5073683;27;48242;-59
2021/07/05 08:50:41;;;;;;;;;6.25;6.25;;;;;22.72;56.16;100199.31;5071164;27;45777;-58
2021/07/05 08:53:07;;;;;;;;;3.50;3.50;;;;;22.69;55.96;100194.16;5071616;27;45402;-58
2021/07/05 08:55:32;;;;;;;;;6.67;6.00;;;;;22.74;56.51;100194.66;5071264;27;45469;-57
2021/07/05 08:57:59;;;;;;;;;5.00;5.00;;;;;22.73;56.24;100192.91;5068072;27;48188;-57
2021/07/05 09:00:30;;;;;;;;;5.00;5.00;;;;;22.73;55.81;100192.03;5057132;27;45408;-58
2021/07/05 09:02:59;;;;;;;;;5.67;5.33;;;;;22.73;56.52;100197.47;5049715;28;45764;-58
2021/07/05 09:05:25;;;;;;;;;6.00;6.00;;;;;22.74;56.56;100207.28;5053088;28;45815;-58
2021/07/05 09:08:01;;;;;;;;;6.00;6.00;;;;;22.79;56.50;100200.53;5057198;28;47172;-58
2021/07/05 09:10:29;;;;;;;;;8.00;6.00;;;;;22.77;56.02;100205.22;5064009;27;45504;-58
2021/07/05 09:13:13;;;;;;;;;6.50;6.50;;;;;22.67;55.93;100200.66;5052155;27;45480;-58
2021/07/05 09:15:48;;;;;;;;;5.67;4.67;;;;;22.61;56.16;100202.91;5055788;27;45534;-58
2021/07/05 09:18:26;;;;;;;;;5.00;5.00;;;;;22.70;56.49;100198.56;5060497;27;47362;-57
2021/07/05 09:20:53;;;;;;;;;5.00;4.67;;;;;22.76;55.85;100210.75;5061606;28;45411;-57
2021/07/05 09:23:20;;;;;;;;;4.00;4.00;;;;;22.80;55.88;100214.94;5074735;27;45343;-57
2021/07/05 09:25:48;;;;;;;;;6.67;6.00;;;;;22.84;55.58;100211.88;5059205;28;45424;-57
2021/07/05 09:28:16;;;;;;;;;8.33;6.33;;;;;22.85;55.86;100213.59;5070177;27;46874;-58
2021/07/05 09:30:42;;;;;;;;;5.00;5.00;;;;;22.86;55.53;100219.88;5058327;28;45389;-58
2021/07/05 09:33:15;;;;;;;;;3.00;3.00;;;;;22.87;55.49;100219.78;5074575;27;45387;-57
2021/07/05 09:35:40;;;;;;;;;3.00;3.00;;;;;22.88;55.33;100218.78;5067266;27;45423;-57
2021/07/05 09:38:06;;;;;;;;;2.00;2.00;;;;;22.85;55.27;100220.84;5052034;28;46815;-57
2021/07/05 09:40:32;;;;;;;;;3.00;3.00;;;;;22.82;55.13;100223.78;5076471;27;45672;-58
2021/07/05 09:42:58;;;;;;;;;3.33;2.00;;;;;22.83;55.50;100215.56;5053417;28;45501;-58
2021/07/05 09:45:23;;;;;;;;;2.00;2.00;;;;;22.91;55.52;100220.38;5071361;27;46041;-57
2021/07/05 09:48:18;;;;;;;;;2.00;2.00;;;;;22.97;54.96;100222.56;5069164;27;45555;-59
2021/07/05 09:50:50;;;;;;;;;1.67;1.67;;;;;23.02;54.99;100222.22;5055703;28;45641;-58
2021/07/05 09:53:35;;;;;;;;;1.67;1.67;;;;;23.09;54.73;100224.28;5075729;27;45739;-58
2021/07/05 09:56:19;;;;;;;;;2.33;2.00;;;;;23.18;54.56;100218.13;5053996;28;45719;-58
2021/07/05 09:58:50;;;;;;;;;1.67;1.67;;;;;23.28;54.06;100233.63;5069507;27;45820;-58
2021/07/05 10:01:38;;;;;;;;;2.00;2.00;;;;;23.35;53.83;100226.69;5051453;28;45830;-59
2021/07/05 10:04:06;;;;;;;;;2.33;2.33;;;;;23.38;53.77;100223.75;5057175;27;45896;-58
2021/07/05 10:06:42;;;;;;;;;3.00;3.00;;;;;23.44;54.38;100225.94;5041079;28;45425;-58
2021/07/05 10:09:09;;;;;;;;;4.00;4.00;;;;;23.47;54.21;100225.69;5071137;27;45503;-58
2021/07/05 10:11:36;;;;;;;;;2.67;2.67;;;;;23.44;53.65;100229.50;5060027;27;45842;-58
2021/07/05 10:14:28;;;;;;;;;3.33;3.33;;;;;23.37;53.85;100246.38;5056702;28;45521;-58
2021/07/05 10:16:54;;;;;;;;;3.00;3.00;;;;;23.33;54.00;100239.50;5065109;27;45389;-59
2021/07/05 10:19:19;;;;;;;;;1.67;1.67;;;;;23.34;53.77;100238.50;5060674;28;48347;-58
2021/07/05 10:21:45;;;;;;;;;3.00;3.00;;;;;23.34;54.05;100242.06;5074303;27;45432;-59
2021/07/05 10:24:11;;;;;;;;;2.00;2.00;;;;;23.33;53.58;100237.66;5077490;27;45339;-58
2021/07/05 10:26:39;;;;;;;;;2.00;2.00;;;;;23.33;54.26;100234.09;5068062;27;45504;-58
2021/07/05 10:29:06;;;;;;;;;1.33;1.33;;;;;23.37;53.87;100235.53;5052537;28;47619;-59
2021/07/05 10:31:35;;;;;;;;;2.00;2.00;;;;;23.47;53.93;100236.50;5076689;27;45663;-60
2021/07/05 10:34:03;;;;;;;;;3.33;2.67;;;;;23.58;53.84;100227.53;5057254;28;45696;-58
2021/07/05 10:36:33;;;;;;;;;2.33;2.33;;;;;23.70;53.79;100229.22;5077669;27;45388;-58
2021/07/05 10:39:01;;;;;;;;;1.67;1.67;;;;;23.82;53.38;100233.59;5078678;27;47305;-58
2021/07/05 10:41:47;;;;;;;;;1.33;1.33;;;;;23.98;53.08;100239.44;5066361;27;46066;-58
2021/07/05 10:44:15;;;;;;;;;2.00;2.00;;;;;24.11;52.84;100244.66;5074765;27;45679;-57
2021/07/05 10:46:46;;;;;;;;;0.67;0.67;;;;;24.23;52.54;100262.59;5067043;27;45668;-58
2021/07/05 10:49:32;;;;;;;;;1.67;1.67;;;;;24.33;52.06;100268.13;5069051;27;47424;-58
2021/07/05 10:52:03;;;;;;;;;4.00;4.00;;;;;24.42;51.91;100269.19;5051301;27;45551;-56
2021/07/05 10:54:47;;;;;;;;;17.00;17.00;;;;;24.50;51.73;100262.09;5058192;27;45539;-60
2021/07/05 10:57:15;;;;;;;;;16.00;16.00;;;;;24.53;51.59;100261.84;5069448;27;45560;-60
2021/07/05 10:59:43;;;;;;;;;38.00;34.50;;;;;24.59;51.60;100264.00;5072000;27;47624;-60
2021/07/05 11:02:48;;;;;;;;;34.00;30.75;;;;;24.69;51.27;100261.34;5073582;27;45899;-59
2021/07/05 11:05:51;;;;;;;;;18.75;18.75;;;;;24.79;51.13;100253.28;4995808;28;45508;-60
2021/07/05 11:08:27;;;;;;;;;13.75;13.75;;;;;24.83;50.70;100252.84;4978790;28;45413;-60
2021/07/05 11:11:10;;;;;;;;;10.50;10.50;;;;;24.84;50.44;100254.56;5053269;27;47324;-60
2021/07/05 11:13:38;;;;;;;;;6.00;6.00;;;;;24.87;50.35;100250.72;5062087;27;45531;-59
2021/07/05 11:16:04;;;;;;;;;12.75;12.00;;;;;24.89;50.28;100257.72;5073164;27;45358;-59
2021/07/05 11:18:36;;;;;;;;;4.25;4.25;;;;;24.92;49.78;100248.47;5071532;27;45504;-59
2021/07/05 11:21:20;;;;;;;;;4.50;4.50;;;;;24.96;49.96;100239.03;5052233;28;45457;-59
2021/07/05 11:23:59;;;;;;;;;4.00;4.00;;;;;25.00;49.52;100245.91;5066513;27;45653;-58
2021/07/05 11:26:35;;;;;;;;;4.00;4.00;;;;;25.03;50.01;100242.09;5061122;27;45408;-59